Terminal Aerodrome Forecast
Issued by NWS Charleston, WV

Current Version | Previous Version | Graphics & Text | Print | Product List | Glossary On
Versions: 1 2 3 4 5 6 7 8 9 10 11 12 13 14 15 16 17 18 19 20 21 22 23
000
FTUS41 KRLX 091500 AAA
TAFEKN
TAF AMD
KEKN 091552Z 0916/1012 24006KT P6SM FEW024 SCT035 BKN045
     FM100000 VRB03KT 6SM BR SCT045
     FM100500 00000KT 3SM BR SCT040
     FM100600 00000KT 1/2SM FG VV001=

USA.gov is the U.S. government's official web portal to all federal, state and local government web resources and services.